sensor_id;sensor_type;location;lat;lon;timestamp;pressure;altitude;pressure_sealevel;temperature;humidity
23172;BME280;11754;42.664;23.594;2023-04-06T00:00:43;95186.19;;;0.58;70.84
23172;BME280;11754;42.664;23.594;2023-04-06T00:03:08;95184.63;;;0.55;70.72
23172;BME280;11754;42.664;23.594;2023-04-06T00:05:34;95174.13;;;0.57;70.78
23172;BME280;11754;42.664;23.594;2023-04-06T00:07:59;95184.63;;;0.55;70.95
23172;BME280;11754;42.664;23.594;2023-04-06T00:10:28;95178.63;;;0.55;71.30
23172;BME280;11754;42.664;23.594;2023-04-06T00:12:54;95174.13;;;0.57;71.16
23172;BME280;11754;42.664;23.594;2023-04-06T00:15:20;95166.47;;;0.55;71.33
23172;BME280;11754;42.664;23.594;2023-04-06T00:17:46;95170.75;;;0.67;71.12
23172;BME280;11754;42.664;23.594;2023-04-06T00:20:11;95165.47;;;0.69;71.11
23172;BME280;11754;42.664;23.594;2023-04-06T00:22:37;95161.53;;;0.63;71.24
23172;BME280;11754;42.664;23.594;2023-04-06T00:25:03;95150.44;;;0.61;70.97
23172;BME280;11754;42.664;23.594;2023-04-06T00:27:29;95162.28;;;0.77;70.63
23172;BME280;11754;42.664;23.594;2023-04-06T00:29:57;95153.41;;;0.79;70.61
23172;BME280;11754;42.664;23.594;2023-04-06T00:32:23;95155.47;;;0.87;70.05
23172;BME280;11754;42.664;23.594;2023-04-06T00:34:51;95147.69;;;0.98;69.72
23172;BME280;11754;42.664;23.594;2023-04-06T00:37:16;95144.97;;;1.00;69.75
23172;BME280;11754;42.664;23.594;2023-04-06T00:39:42;95147.22;;;1.04;69.56
23172;BME280;11754;42.664;23.594;2023-04-06T00:42:12;95145.13;;;1.09;69.23
23172;BME280;11754;42.664;23.594;2023-04-06T00:44:39;95147.50;;;1.24;69.17
23172;BME280;11754;42.664;23.594;2023-04-06T00:47:08;95144.31;;;1.31;68.80
23172;BME280;11754;42.664;23.594;2023-04-06T00:49:34;95143.72;;;1.28;69.12
23172;BME280;11754;42.664;23.594;2023-04-06T00:52:00;95139.34;;;1.28;69.20
23172;BME280;11754;42.664;23.594;2023-04-06T00:54:29;95141.81;;;1.30;69.07
23172;BME280;11754;42.664;23.594;2023-04-06T00:56:55;95146.31;;;1.39;69.11
23172;BME280;11754;42.664;23.594;2023-04-06T00:59:21;95132.00;;;1.56;68.57
23172;BME280;11754;42.664;23.594;2023-04-06T01:02:05;95133.88;;;1.54;68.33
23172;BME280;11754;42.664;23.594;2023-04-06T01:04:31;95139.09;;;1.54;68.72
23172;BME280;11754;42.664;23.594;2023-04-06T01:06:56;95135.88;;;1.61;68.36
23172;BME280;11754;42.664;23.594;2023-04-06T01:09:22;95120.06;;;1.53;68.24
23172;BME280;11754;42.664;23.594;2023-04-06T01:11:47;95123.84;;;1.49;67.95
23172;BME280;11754;42.664;23.594;2023-04-06T01:14:17;95124.53;;;1.51;68.07
23172;BME280;11754;42.664;23.594;2023-04-06T01:16:43;95126.69;;;1.57;68.50
23172;BME280;11754;42.664;23.594;2023-04-06T01:19:10;95118.06;;;1.57;67.96
23172;BME280;11754;42.664;23.594;2023-04-06T01:21:39;95104.72;;;1.39;68.14
23172;BME280;11754;42.664;23.594;2023-04-06T01:24:05;95108.03;;;1.41;68.09
23172;BME280;11754;42.664;23.594;2023-04-06T01:26:32;95112.28;;;1.42;68.45
23172;BME280;11754;42.664;23.594;2023-04-06T01:28:57;95113.47;;;1.38;68.71
23172;BME280;11754;42.664;23.594;2023-04-06T01:31:23;95098.81;;;1.26;68.94
23172;BME280;11754;42.664;23.594;2023-04-06T01:33:49;95106.38;;;1.40;68.67
23172;BME280;11754;42.664;23.594;2023-04-06T01:36:15;95086.91;;;1.34;68.35
23172;BME280;11754;42.664;23.594;2023-04-06T01:38:41;95085.56;;;1.40;68.59
23172;BME280;11754;42.664;23.594;2023-04-06T01:41:07;95101.53;;;1.47;68.60
23172;BME280;11754;42.664;23.594;2023-04-06T01:43:35;95098.81;;;1.48;68.35
23172;BME280;11754;42.664;23.594;2023-04-06T01:46:01;95095.28;;;1.49;68.29
23172;BME280;11754;42.664;23.594;2023-04-06T01:48:27;95087.00;;;1.44;67.74
23172;BME280;11754;42.664;23.594;2023-04-06T01:50:53;95093.63;;;1.48;67.81
23172;BME280;11754;42.664;23.594;2023-04-06T01:53:19;95088.44;;;1.48;67.57
23172;BME280;11754;42.664;23.594;2023-04-06T01:55:45;95097.84;;;1.60;67.45
23172;BME280;11754;42.664;23.594;2023-04-06T01:58:11;95091.25;;;1.56;67.66
23172;BME280;11754;42.664;23.594;2023-04-06T02:00:36;95094.28;;;1.61;67.71
23172;BME280;11754;42.664;23.594;2023-04-06T02:03:02;95070.56;;;1.55;67.50
23172;BME280;11754;42.664;23.594;2023-04-06T02:05:29;95081.88;;;1.65;67.62
23172;BME280;11754;42.664;23.594;2023-04-06T02:07:55;95085.31;;;1.65;67.30
23172;BME280;11754;42.664;23.594;2023-04-06T02:10:24;95090.75;;;1.62;67.28
23172;BME280;11754;42.664;23.594;2023-04-06T02:12:50;95084.63;;;1.63;67.30
23172;BME280;11754;42.664;23.594;2023-04-06T02:15:15;95086.16;;;1.66;67.04
23172;BME280;11754;42.664;23.594;2023-04-06T02:17:41;95077.47;;;1.77;66.92
23172;BME280;11754;42.664;23.594;2023-04-06T02:20:07;95082.66;;;1.77;67.01
23172;BME280;11754;42.664;23.594;2023-04-06T02:22:34;95079.63;;;1.72;66.59
23172;BME280;11754;42.664;23.594;2023-04-06T02:25:01;95085.31;;;1.65;66.68
23172;BME280;11754;42.664;23.594;2023-04-06T02:27:27;95074.69;;;1.57;67.02
23172;BME280;11754;42.664;23.594;2023-04-06T02:29:53;95074.00;;;1.55;67.42
23172;BME280;11754;42.664;23.594;2023-04-06T02:32:18;95082.97;;;1.51;67.57
23172;BME280;11754;42.664;23.594;2023-04-06T02:34:44;95085.81;;;1.48;68.05
23172;BME280;11754;42.664;23.594;2023-04-06T02:37:10;95075.91;;;1.42;68.41
23172;BME280;11754;42.664;23.594;2023-04-06T02:39:35;95083.34;;;1.47;68.54
23172;BME280;11754;42.664;23.594;2023-04-06T02:42:01;95082.72;;;1.54;68.25
23172;BME280;11754;42.664;23.594;2023-04-06T02:44:26;95072.81;;;1.59;68.28
23172;BME280;11754;42.664;23.594;2023-04-06T02:46:52;95085.19;;;1.67;68.24
23172;BME280;11754;42.664;23.594;2023-04-06T02:49:17;95078.44;;;1.76;68.19
23172;BME280;11754;42.664;23.594;2023-04-06T02:51:43;95077.72;;;1.85;67.87
23172;BME280;11754;42.664;23.594;2023-04-06T02:54:08;95078.91;;;1.81;67.61
23172;BME280;11754;42.664;23.594;2023-04-06T02:56:34;95080.88;;;1.88;67.70
23172;BME280;11754;42.664;23.594;2023-04-06T02:59:00;95073.78;;;1.90;67.31
23172;BME280;11754;42.664;23.594;2023-04-06T03:01:26;95075.44;;;1.91;67.40
23172;BME280;11754;42.664;23.594;2023-04-06T03:03:51;95075.44;;;1.91;67.26
23172;BME280;11754;42.664;23.594;2023-04-06T03:06:17;95086.09;;;1.88;67.28
23172;BME280;11754;42.664;23.594;2023-04-06T03:08:42;95079.09;;;1.89;67.43
23172;BME280;11754;42.664;23.594;2023-04-06T03:11:08;95084.75;;;1.94;67.19
23172;BME280;11754;42.664;23.594;2023-04-06T03:13:34;95081.22;;;1.95;67.59
23172;BME280;11754;42.664;23.594;2023-04-06T03:16:00;95085.44;;;2.07;67.07
23172;BME280;11754;42.664;23.594;2023-04-06T03:18:25;95093.22;;;2.07;66.90
23172;BME280;11754;42.664;23.594;2023-04-06T03:20:51;95091.06;;;2.12;66.81
23172;BME280;11754;42.664;23.594;2023-04-06T03:23:20;95095.09;;;2.16;66.53
23172;BME280;11754;42.664;23.594;2023-04-06T03:25:46;95093.19;;;2.19;66.77
23172;BME280;11754;42.664;23.594;2023-04-06T03:28:12;95087.16;;;2.18;66.75
23172;BME280;11754;42.664;23.594;2023-04-06T03:30:38;95089.03;;;2.27;66.61
23172;BME280;11754;42.664;23.594;2023-04-06T03:33:03;95093.84;;;2.32;66.52
23172;BME280;11754;42.664;23.594;2023-04-06T03:35:32;95083.19;;;2.35;66.52
23172;BME280;11754;42.664;23.594;2023-04-06T03:37:58;95089.59;;;2.31;66.17
23172;BME280;11754;42.664;23.594;2023-04-06T03:40:23;95085.84;;;2.24;66.14
23172;BME280;11754;42.664;23.594;2023-04-06T03:42:49;95082.97;;;2.27;66.53
23172;BME280;11754;42.664;23.594;2023-04-06T03:45:14;95070.81;;;2.27;66.48
23172;BME280;11754;42.664;23.594;2023-04-06T03:47:40;95087.25;;;2.28;66.65
23172;BME280;11754;42.664;23.594;2023-04-06T03:50:09;95082.72;;;2.30;66.42
23172;BME280;11754;42.664;23.594;2023-04-06T03:52:35;95087.69;;;2.33;66.45
23172;BME280;11754;42.664;23.594;2023-04-06T03:55:03;95086.81;;;2.44;65.95
23172;BME280;11754;42.664;23.594;2023-04-06T03:57:29;95079.97;;;2.43;65.77
23172;BME280;11754;42.664;23.594;2023-04-06T03:59:54;95089.41;;;2.44;65.73
23172;BME280;11754;42.664;23.594;2023-04-06T04:02:20;95078.84;;;2.45;65.89
23172;BME280;11754;42.664;23.594;2023-04-06T04:04:45;95076.47;;;2.53;65.56
23172;BME280;11754;42.664;23.594;2023-04-06T04:07:11;95086.88;;;2.53;65.73
23172;BME280;11754;42.664;23.594;2023-04-06T04:09:36;95077.28;;;2.54;65.39
23172;BME280;11754;42.664;23.594;2023-04-06T04:12:02;95086.34;;;2.59;65.24
23172;BME280;11754;42.664;23.594;2023-04-06T04:14:28;95080.47;;;2.57;65.19
23172;BME280;11754;42.664;23.594;2023-04-06T04:16:53;95083.56;;;2.72;65.28
23172;BME280;11754;42.664;23.594;2023-04-06T04:19:21;95084.16;;;2.76;65.02
23172;BME280;11754;42.664;23.594;2023-04-06T04:21:47;95083.06;;;2.78;64.70
23172;BME280;11754;42.664;23.594;2023-04-06T04:24:13;95090.91;;;2.88;64.60
23172;BME280;11754;42.664;23.594;2023-04-06T04:26:39;95085.34;;;2.93;64.19
23172;BME280;11754;42.664;23.594;2023-04-06T04:29:05;95083.56;;;2.93;64.29
23172;BME280;11754;42.664;23.594;2023-04-06T04:31:30;95089.84;;;2.91;63.82
23172;BME280;11754;42.664;23.594;2023-04-06T04:33:56;95086.09;;;3.04;63.81
23172;BME280;11754;42.664;23.594;2023-04-06T04:36:21;95081.69;;;3.05;63.96
23172;BME280;11754;42.664;23.594;2023-04-06T04:38:48;95092.16;;;3.15;63.91
23172;BME280;11754;42.664;23.594;2023-04-06T04:41:13;95086.41;;;3.21;63.33
23172;BME280;11754;42.664;23.594;2023-04-06T04:43:39;95086.16;;;3.24;63.02
23172;BME280;11754;42.664;23.594;2023-04-06T04:46:04;95091.63;;;3.21;63.14
23172;BME280;11754;42.664;23.594;2023-04-06T04:48:30;95089.47;;;3.26;62.63
23172;BME280;11754;42.664;23.594;2023-04-06T04:50:56;95068.53;;;3.06;63.03
23172;BME280;11754;42.664;23.594;2023-04-06T04:53:21;95090.50;;;3.13;63.20
23172;BME280;11754;42.664;23.594;2023-04-06T04:55:47;95093.41;;;3.20;63.24
23172;BME280;11754;42.664;23.594;2023-04-06T04:58:12;95094.59;;;3.37;62.86
23172;BME280;11754;42.664;23.594;2023-04-06T05:00:42;95087.19;;;3.42;62.31
23172;BME280;11754;42.664;23.594;2023-04-06T05:03:08;95086.00;;;3.46;62.07
23172;BME280;11754;42.664;23.594;2023-04-06T05:05:34;95075.56;;;3.46;61.83
23172;BME280;11754;42.664;23.594;2023-04-06T05:08:02;95091.47;;;3.53;61.64
23172;BME280;11754;42.664;23.594;2023-04-06T05:10:28;95082.81;;;3.43;61.88
23172;BME280;11754;42.664;23.594;2023-04-06T05:12:53;95088.59;;;3.46;61.79
23172;BME280;11754;42.664;23.594;2023-04-06T05:15:19;95096.13;;;3.49;62.20
23172;BME280;11754;42.664;23.594;2023-04-06T05:17:44;95095.19;;;3.50;61.86
23172;BME280;11754;42.664;23.594;2023-04-06T05:20:10;95097.00;;;3.59;62.04
23172;BME280;11754;42.664;23.594;2023-04-06T05:22:36;95092.88;;;3.67;60.91
23172;BME280;11754;42.664;23.594;2023-04-06T05:25:02;95092.38;;;3.73;61.04
23172;BME280;11754;42.664;23.594;2023-04-06T05:27:28;95094.53;;;3.68;60.72
23172;BME280;11754;42.664;23.594;2023-04-06T05:29:53;95089.19;;;3.69;61.11
23172;BME280;11754;42.664;23.594;2023-04-06T05:32:19;95094.53;;;3.68;61.23
23172;BME280;11754;42.664;23.594;2023-04-06T05:34:50;95091.41;;;3.74;60.62
23172;BME280;11754;42.664;23.594;2023-04-06T05:37:16;95079.72;;;3.78;59.76
23172;BME280;11754;42.664;23.594;2023-04-06T05:39:41;95083.56;;;3.74;60.60
23172;BME280;11754;42.664;23.594;2023-04-06T05:42:07;95078.50;;;3.82;59.83
23172;BME280;11754;42.664;23.594;2023-04-06T05:44:32;95075.91;;;3.92;59.65
23172;BME280;11754;42.664;23.594;2023-04-06T05:46:58;95082.25;;;3.99;59.48
23172;BME280;11754;42.664;23.594;2023-04-06T05:49:23;95081.28;;;3.90;59.72
23172;BME280;11754;42.664;23.594;2023-04-06T05:51:49;95076.63;;;4.13;59.41
23172;BME280;11754;42.664;23.594;2023-04-06T05:54:14;95082.66;;;4.14;59.02
23172;BME280;11754;42.664;23.594;2023-04-06T05:56:40;95068.25;;;4.29;58.72
23172;BME280;11754;42.664;23.594;2023-04-06T05:59:06;95057.25;;;4.25;58.29
23172;BME280;11754;42.664;23.594;2023-04-06T06:01:40;95071.81;;;4.28;57.93
23172;BME280;11754;42.664;23.594;2023-04-06T06:04:06;95067.41;;;4.28;57.80
23172;BME280;11754;42.664;23.594;2023-04-06T06:06:32;95064.41;;;4.14;57.75
23172;BME280;11754;42.664;23.594;2023-04-06T06:08:58;95076.38;;;4.26;57.65
23172;BME280;11754;42.664;23.594;2023-04-06T06:11:27;95076.78;;;4.12;57.90
23172;BME280;11754;42.664;23.594;2023-04-06T06:13:53;95061.25;;;4.10;57.78
23172;BME280;11754;42.664;23.594;2023-04-06T06:16:19;95065.59;;;3.71;58.70
23172;BME280;11754;42.664;23.594;2023-04-06T06:18:45;95073.13;;;3.64;59.11
23172;BME280;11754;42.664;23.594;2023-04-06T06:21:10;95069.78;;;3.52;60.17
23172;BME280;11754;42.664;23.594;2023-04-06T06:23:41;95064.56;;;3.43;60.40
23172;BME280;11754;42.664;23.594;2023-04-06T06:26:12;95072.03;;;3.67;59.74
23172;BME280;11754;42.664;23.594;2023-04-06T06:28:37;95071.00;;;3.98;59.67
23172;BME280;11754;42.664;23.594;2023-04-06T06:31:03;95067.13;;;4.22;58.85
23172;BME280;11754;42.664;23.594;2023-04-06T06:33:28;95063.03;;;4.39;58.34
23172;BME280;11754;42.664;23.594;2023-04-06T06:35:54;95066.56;;;4.67;57.30
23172;BME280;11754;42.664;23.594;2023-04-06T06:38:19;95072.06;;;4.64;56.57
23172;BME280;11754;42.664;23.594;2023-04-06T06:40:46;95067.94;;;4.71;56.68
23172;BME280;11754;42.664;23.594;2023-04-06T06:43:11;95062.66;;;4.90;56.81
23172;BME280;11754;42.664;23.594;2023-04-06T06:45:37;95057.91;;;5.23;55.97
23172;BME280;11754;42.664;23.594;2023-04-06T06:48:03;95069.25;;;5.41;54.43
23172;BME280;11754;42.664;23.594;2023-04-06T06:50:28;95064.13;;;5.49;54.70
23172;BME280;11754;42.664;23.594;2023-04-06T06:52:54;95065.16;;;5.29;53.89
23172;BME280;11754;42.664;23.594;2023-04-06T06:55:19;95058.19;;;5.47;53.60
23172;BME280;11754;42.664;23.594;2023-04-06T06:57:45;95059.25;;;5.54;53.77
23172;BME280;11754;42.664;23.594;2023-04-06T07:00:14;95067.34;;;5.89;53.61
23172;BME280;11754;42.664;23.594;2023-04-06T07:02:39;95068.81;;;5.91;53.04
23172;BME280;11754;42.664;23.594;2023-04-06T07:05:05;95077.56;;;6.10;52.45
23172;BME280;11754;42.664;23.594;2023-04-06T07:07:34;95058.72;;;5.78;51.82
23172;BME280;11754;42.664;23.594;2023-04-06T07:10:03;95064.84;;;6.15;51.76
23172;BME280;11754;42.664;23.594;2023-04-06T07:12:28;95069.16;;;6.60;50.67
23172;BME280;11754;42.664;23.594;2023-04-06T07:14:54;95064.56;;;6.80;49.46
23172;BME280;11754;42.664;23.594;2023-04-06T07:17:20;95057.19;;;6.75;49.60
23172;BME280;11754;42.664;23.594;2023-04-06T07:19:46;95065.06;;;6.57;50.14
23172;BME280;11754;42.664;23.594;2023-04-06T07:22:12;95061.47;;;6.58;49.41
23172;BME280;11754;42.664;23.594;2023-04-06T07:24:37;95059.00;;;6.57;49.72
23172;BME280;11754;42.664;23.594;2023-04-06T07:27:03;95062.28;;;6.59;49.33
23172;BME280;11754;42.664;23.594;2023-04-06T07:29:29;95059.38;;;6.62;50.10
23172;BME280;11754;42.664;23.594;2023-04-06T07:31:54;95064.22;;;7.01;49.28
23172;BME280;11754;42.664;23.594;2023-04-06T07:34:21;95060.66;;;7.10;48.73
23172;BME280;11754;42.664;23.594;2023-04-06T07:36:46;95065.34;;;6.72;48.95
23172;BME280;11754;42.664;23.594;2023-04-06T07:39:15;95071.13;;;6.22;50.03
23172;BME280;11754;42.664;23.594;2023-04-06T07:41:41;95056.94;;;6.07;49.21
23172;BME280;11754;42.664;23.594;2023-04-06T07:44:06;95060.53;;;5.78;51.39
23172;BME280;11754;42.664;23.594;2023-04-06T07:46:32;95066.59;;;6.06;49.83
23172;BME280;11754;42.664;23.594;2023-04-06T07:48:59;95058.34;;;6.19;49.75
23172;BME280;11754;42.664;23.594;2023-04-06T07:51:24;95063.22;;;6.14;48.74
23172;BME280;11754;42.664;23.594;2023-04-06T07:53:51;95059.97;;;6.02;49.06
23172;BME280;11754;42.664;23.594;2023-04-06T07:56:17;95061.72;;;6.29;48.66
23172;BME280;11754;42.664;23.594;2023-04-06T07:58:43;95068.97;;;6.35;48.75
23172;BME280;11754;42.664;23.594;2023-04-06T08:01:08;95064.69;;;6.16;48.82
23172;BME280;11754;42.664;23.594;2023-04-06T08:03:35;95065.72;;;6.06;49.31
23172;BME280;11754;42.664;23.594;2023-04-06T08:06:01;95068.34;;;6.23;49.26
23172;BME280;11754;42.664;23.594;2023-04-06T08:08:27;95069.28;;;6.32;48.75
23172;BME280;11754;42.664;23.594;2023-04-06T08:10:53;95074.88;;;6.37;48.72
23172;BME280;11754;42.664;23.594;2023-04-06T08:13:18;95062.31;;;6.23;48.76
23172;BME280;11754;42.664;23.594;2023-04-06T08:15:44;95065.09;;;6.21;49.26
23172;BME280;11754;42.664;23.594;2023-04-06T08:18:10;95066.50;;;6.16;49.18
23172;BME280;11754;42.664;23.594;2023-04-06T08:20:36;95070.91;;;5.70;49.95
23172;BME280;11754;42.664;23.594;2023-04-06T08:23:02;95062.97;;;5.79;49.36
23172;BME280;11754;42.664;23.594;2023-04-06T08:25:27;95058.34;;;5.91;50.07
23172;BME280;11754;42.664;23.594;2023-04-06T08:27:52;95058.56;;;6.25;48.31
23172;BME280;11754;42.664;23.594;2023-04-06T08:30:18;95054.38;;;6.50;48.72
23172;BME280;11754;42.664;23.594;2023-04-06T08:32:47;95062.53;;;6.91;47.99
23172;BME280;11754;42.664;23.594;2023-04-06T08:35:13;95063.22;;;7.54;46.61
23172;BME280;11754;42.664;23.594;2023-04-06T08:37:38;95056.47;;;8.02;44.08
23172;BME280;11754;42.664;23.594;2023-04-06T08:40:04;95064.13;;;8.46;42.81
23172;BME280;11754;42.664;23.594;2023-04-06T08:42:56;95053.59;;;9.03;41.82
23172;BME280;11754;42.664;23.594;2023-04-06T08:45:25;95043.31;;;9.32;41.06
23172;BME280;11754;42.664;23.594;2023-04-06T08:47:51;95029.75;;;9.91;40.21
23172;BME280;11754;42.664;23.594;2023-04-06T08:50:20;95034.63;;;10.56;40.26
23172;BME280;11754;42.664;23.594;2023-04-06T08:52:55;95033.91;;;10.86;39.31
23172;BME280;11754;42.664;23.594;2023-04-06T08:55:21;95036.50;;;11.23;37.92
23172;BME280;11754;42.664;23.594;2023-04-06T08:57:47;95042.59;;;11.09;37.86
23172;BME280;11754;42.664;23.594;2023-04-06T09:00:14;95039.75;;;10.58;38.51
23172;BME280;11754;42.664;23.594;2023-04-06T09:02:42;95047.72;;;10.88;37.33
23172;BME280;11754;42.664;23.594;2023-04-06T09:05:08;95042.59;;;11.24;37.14
23172;BME280;11754;42.664;23.594;2023-04-06T09:07:37;95035.81;;;11.29;37.65
23172;BME280;11754;42.664;23.594;2023-04-06T09:10:06;95045.09;;;11.85;36.19
23172;BME280;11754;42.664;23.594;2023-04-06T09:12:33;95023.09;;;12.57;35.71
23172;BME280;11754;42.664;23.594;2023-04-06T09:14:59;95034.81;;;13.46;34.68
23172;BME280;11754;42.664;23.594;2023-04-06T09:17:29;95025.91;;;14.02;32.93
23172;BME280;11754;42.664;23.594;2023-04-06T09:19:57;95029.50;;;14.49;32.00
23172;BME280;11754;42.664;23.594;2023-04-06T09:22:23;95023.38;;;14.42;32.12
23172;BME280;11754;42.664;23.594;2023-04-06T09:24:52;95032.03;;;14.57;32.06
23172;BME280;11754;42.664;23.594;2023-04-06T09:27:29;95017.94;;;14.77;31.25
23172;BME280;11754;42.664;23.594;2023-04-06T09:30:15;95024.06;;;14.57;31.72
23172;BME280;11754;42.664;23.594;2023-04-06T09:32:50;95012.03;;;15.08;30.83
23172;BME280;11754;42.664;23.594;2023-04-06T09:35:16;95021.22;;;15.19;30.57
23172;BME280;11754;42.664;23.594;2023-04-06T09:37:45;95031.59;;;14.60;30.77
23172;BME280;11754;42.664;23.594;2023-04-06T09:40:11;95024.84;;;13.90;32.05
23172;BME280;11754;42.664;23.594;2023-04-06T09:42:40;95024.72;;;13.63;31.67
23172;BME280;11754;42.664;23.594;2023-04-06T09:45:06;95017.88;;;13.19;32.69
23172;BME280;11754;42.664;23.594;2023-04-06T09:47:33;95021.31;;;13.41;33.31
23172;BME280;11754;42.664;23.594;2023-04-06T09:50:02;95031.91;;;13.35;33.03
23172;BME280;11754;42.664;23.594;2023-04-06T09:52:40;95023.63;;;13.51;32.82
23172;BME280;11754;42.664;23.594;2023-04-06T09:55:07;95019.81;;;13.04;33.78
23172;BME280;11754;42.664;23.594;2023-04-06T09:57:53;95009.41;;;12.74;33.67
23172;BME280;11754;42.664;23.594;2023-04-06T10:00:22;95023.78;;;12.65;34.23
23172;BME280;11754;42.664;23.594;2023-04-06T10:07:56;95012.13;;;13.72;32.44
23172;BME280;11754;42.664;23.594;2023-04-06T10:10:22;95008.47;;;14.41;31.19
23172;BME280;11754;42.664;23.594;2023-04-06T10:12:48;95002.22;;;14.82;30.64
23172;BME280;11754;42.664;23.594;2023-04-06T10:15:15;95005.09;;;14.87;30.37
23172;BME280;11754;42.664;23.594;2023-04-06T10:17:41;94992.41;;;14.96;30.10
23172;BME280;11754;42.664;23.594;2023-04-06T10:20:21;94997.50;;;14.71;30.09
23172;BME280;11754;42.664;23.594;2023-04-06T10:23:01;94997.72;;;15.16;29.99
23172;BME280;11754;42.664;23.594;2023-04-06T10:25:30;95003.16;;;14.41;30.21
23172;BME280;11754;42.664;23.594;2023-04-06T10:28:15;94999.63;;;14.07;31.22
23172;BME280;11754;42.664;23.594;2023-04-06T10:30:42;94984.56;;;18.54;27.06
23172;BME280;11754;42.664;23.594;2023-04-06T10:35:39;94981.72;;;21.11;23.51
23172;BME280;11754;42.664;23.594;2023-04-06T10:38:06;94986.19;;;20.88;23.34
23172;BME280;11754;42.664;23.594;2023-04-06T10:40:36;94991.59;;;20.60;23.00
23172;BME280;11754;42.664;23.594;2023-04-06T10:43:12;94986.69;;;19.53;23.88
23172;BME280;11754;42.664;23.594;2023-04-06T10:45:39;94974.22;;;19.82;24.08
23172;BME280;11754;42.664;23.594;2023-04-06T10:48:18;94982.13;;;21.03;22.38
23172;BME280;11754;42.664;23.594;2023-04-06T10:50:49;94980.28;;;20.58;22.96
23172;BME280;11754;42.664;23.594;2023-04-06T10:53:22;94983.91;;;19.71;23.58
23172;BME280;11754;42.664;23.594;2023-04-06T10:55:49;94971.91;;;19.50;24.23
23172;BME280;11754;42.664;23.594;2023-04-06T10:58:15;94978.31;;;19.84;23.50
23172;BME280;11754;42.664;23.594;2023-04-06T11:00:48;94972.72;;;19.51;23.84
23172;BME280;11754;42.664;23.594;2023-04-06T11:03:14;94972.81;;;18.43;24.90
23172;BME280;11754;42.664;23.594;2023-04-06T11:06:04;94976.31;;;17.77;25.42
23172;BME280;11754;42.664;23.594;2023-04-06T11:08:31;94966.44;;;18.86;24.42
23172;BME280;11754;42.664;23.594;2023-04-06T11:11:08;94971.81;;;19.33;24.11
23172;BME280;11754;42.664;23.594;2023-04-06T11:13:54;94958.16;;;18.76;24.91
23172;BME280;11754;42.664;23.594;2023-04-06T11:16:21;94958.97;;;19.82;23.68
23172;BME280;11754;42.664;23.594;2023-04-06T11:18:54;94952.69;;;21.80;21.48
23172;BME280;11754;42.664;23.594;2023-04-06T11:21:39;94945.19;;;24.91;19.06
23172;BME280;11754;42.664;23.594;2023-04-06T11:26:48;94931.56;;;27.90;15.91
23172;BME280;11754;42.664;23.594;2023-04-06T11:29:17;94913.59;;;32.78;13.51
23172;BME280;11754;42.664;23.594;2023-04-06T11:34:13;94913.41;;;32.09;13.71
23172;BME280;11754;42.664;23.594;2023-04-06T11:36:41;94911.59;;;31.65;12.94
23172;BME280;11754;42.664;23.594;2023-04-06T11:39:07;94917.13;;;30.06;13.87
23172;BME280;11754;42.664;23.594;2023-04-06T11:41:32;94916.59;;;28.16;14.85
23172;BME280;11754;42.664;23.594;2023-04-06T11:44:01;94909.03;;;25.53;16.51
23172;BME280;11754;42.664;23.594;2023-04-06T11:46:28;94909.41;;;22.75;18.60
23172;BME280;11754;42.664;23.594;2023-04-06T11:48:58;94913.03;;;21.44;19.88
23172;BME280;11754;42.664;23.594;2023-04-06T11:51:24;94917.84;;;20.57;21.10
23172;BME280;11754;42.664;23.594;2023-04-06T11:53:50;94915.75;;;19.38;22.22
23172;BME280;11754;42.664;23.594;2023-04-06T11:56:29;94904.44;;;17.64;23.54
23172;BME280;11754;42.664;23.594;2023-04-06T11:58:57;94916.22;;;16.94;24.88
23172;BME280;11754;42.664;23.594;2023-04-06T12:01:23;94899.22;;;16.14;25.92
23172;BME280;11754;42.664;23.594;2023-04-06T12:03:50;94925.66;;;15.70;26.24
23172;BME280;11754;42.664;23.594;2023-04-06T12:06:16;94924.78;;;15.11;27.90
23172;BME280;11754;42.664;23.594;2023-04-06T12:08:42;94920.88;;;15.21;28.42
23172;BME280;11754;42.664;23.594;2023-04-06T12:11:08;94921.13;;;15.06;28.69
23172;BME280;11754;42.664;23.594;2023-04-06T12:13:33;94913.13;;;15.12;28.24
23172;BME280;11754;42.664;23.594;2023-04-06T12:15:59;94923.38;;;14.96;28.34
23172;BME280;11754;42.664;23.594;2023-04-06T12:18:24;94921.75;;;14.95;28.60
23172;BME280;11754;42.664;23.594;2023-04-06T12:20:51;94925.84;;;14.64;28.87
23172;BME280;11754;42.664;23.594;2023-04-06T12:23:16;94907.03;;;14.46;29.35
23172;BME280;11754;42.664;23.594;2023-04-06T12:25:42;94909.91;;;14.37;29.62
23172;BME280;11754;42.664;23.594;2023-04-06T12:28:08;94910.94;;;14.56;29.44
23172;BME280;11754;42.664;23.594;2023-04-06T12:30:35;94907.47;;;14.69;29.69
23172;BME280;11754;42.664;23.594;2023-04-06T12:33:00;94913.59;;;14.76;29.63
23172;BME280;11754;42.664;23.594;2023-04-06T12:35:26;94901.72;;;14.46;29.63
23172;BME280;11754;42.664;23.594;2023-04-06T12:37:52;94919.72;;;14.77;29.03
23172;BME280;11754;42.664;23.594;2023-04-06T12:40:17;94893.34;;;15.73;27.77
23172;BME280;11754;42.664;23.594;2023-04-06T12:42:43;94908.03;;;16.96;27.02
23172;BME280;11754;42.664;23.594;2023-04-06T12:45:11;94893.75;;;16.90;25.76
23172;BME280;11754;42.664;23.594;2023-04-06T12:47:36;94897.66;;;16.63;25.78
23172;BME280;11754;42.664;23.594;2023-04-06T12:50:03;94891.25;;;16.45;26.70
23172;BME280;11754;42.664;23.594;2023-04-06T12:53:04;94879.56;;;17.15;25.40
23172;BME280;11754;42.664;23.594;2023-04-06T12:55:30;94882.81;;;17.53;24.71
23172;BME280;11754;42.664;23.594;2023-04-06T12:57:56;94873.59;;;18.28;24.52
23172;BME280;11754;42.664;23.594;2023-04-06T13:00:22;94878.03;;;19.11;23.77
23172;BME280;11754;42.664;23.594;2023-04-06T13:02:47;94872.53;;;19.82;21.94
23172;BME280;11754;42.664;23.594;2023-04-06T13:05:13;94888.31;;;19.55;22.20
23172;BME280;11754;42.664;23.594;2023-04-06T13:07:43;94882.66;;;20.08;22.59
23172;BME280;11754;42.664;23.594;2023-04-06T13:10:09;94886.88;;;19.76;22.43